createdAt,value
2022-08-26T00:02:02.893Z,16.67
2022-08-26T00:04:31.350Z,15.53
2022-08-26T00:06:59.989Z,14.90
2022-08-26T00:09:30.127Z,16.77
2022-08-26T00:11:56.764Z,16.47
2022-08-26T00:14:30.930Z,15.27
2022-08-26T00:16:58.230Z,17.73
2022-08-26T00:19:24.713Z,16.80
2022-08-26T00:21:52.070Z,17.77
2022-08-26T00:24:21.917Z,14.77
2022-08-26T00:26:49.668Z,17.40
2022-08-26T00:29:16.678Z,19.23
2022-08-26T00:31:45.119Z,16.80
2022-08-26T00:34:12.744Z,15.67
2022-08-26T00:36:40.633Z,16.97
2022-08-26T00:39:16.279Z,16.37
2022-08-26T00:41:43.294Z,20.27
2022-08-26T00:44:11.101Z,14.13
2022-08-26T00:46:46.881Z,16.17
2022-08-26T00:49:43.583Z,14.87
2022-08-26T00:52:15.671Z,15.90
2022-08-26T00:54:49.233Z,19.10
2022-08-26T00:57:19.119Z,16.00
2022-08-26T00:59:51.242Z,22.87
2022-08-26T01:02:19.963Z,14.70
2022-08-26T01:04:48.236Z,15.93
2022-08-26T01:07:30.265Z,19.77
2022-08-26T01:09:59.900Z,15.63
2022-08-26T01:12:28.752Z,16.17
2022-08-26T01:14:55.594Z,15.93
2022-08-26T01:17:23.131Z,16.73
2022-08-26T01:20:04.085Z,18.43
2022-08-26T01:22:42.413Z,17.00
2022-08-26T01:25:10.662Z,14.87
2022-08-26T01:27:37.729Z,18.43
2022-08-26T01:30:06.524Z,18.23
2022-08-26T01:32:36.439Z,15.80
2022-08-26T01:35:07.530Z,20.40
2022-08-26T01:37:39.036Z,15.37
2022-08-26T01:40:10.427Z,17.33
2022-08-26T01:42:37.489Z,15.47
2022-08-26T01:45:13.464Z,15.83
2022-08-26T01:47:42.682Z,16.87
2022-08-26T01:50:27.552Z,15.07
2022-08-26T01:52:56.825Z,19.40
2022-08-26T01:55:25.532Z,12.47
2022-08-26T01:58:05.255Z,19.10
2022-08-26T02:00:35.211Z,19.73
2022-08-26T02:03:17.242Z,15.47
2022-08-26T02:05:48.818Z,19.77
2022-08-26T02:08:25.314Z,18.10
2022-08-26T02:10:54.851Z,17.70
2022-08-26T02:13:23.075Z,14.80
2022-08-26T02:15:52.100Z,16.23
2022-08-26T02:18:20.854Z,16.50
2022-08-26T02:20:51.636Z,13.57
2022-08-26T02:23:19.536Z,21.50
2022-08-26T02:26:04.982Z,17.80
2022-08-26T02:28:41.655Z,20.93
2022-08-26T02:31:09.283Z,19.70
2022-08-26T02:33:36.594Z,18.73
2022-08-26T02:36:21.998Z,18.30
2022-08-26T02:38:48.478Z,19.37
2022-08-26T02:41:15.107Z,17.53
2022-08-26T02:43:41.563Z,19.90
2022-08-26T02:46:08.338Z,17.87
2022-08-26T02:48:36.482Z,18.10
2022-08-26T02:51:04.825Z,15.07
2022-08-26T02:53:31.849Z,18.03
2022-08-26T02:56:03.119Z,15.73
2022-08-26T02:58:30.183Z,14.30
2022-08-26T03:00:56.651Z,17.33
2022-08-26T03:03:23.730Z,17.20
2022-08-26T03:05:50.841Z,19.13
2022-08-26T03:08:17.505Z,19.50
2022-08-26T03:10:44.078Z,17.70
2022-08-26T03:13:10.563Z,15.27
2022-08-26T03:15:37.706Z,16.40
2022-08-26T03:18:08.207Z,19.40
2022-08-26T03:20:35.262Z,18.40
2022-08-26T03:23:01.736Z,15.33
2022-08-26T03:25:29.492Z,17.10
2022-08-26T03:27:55.954Z,19.77
2022-08-26T03:30:44.206Z,17.57
2022-08-26T03:33:13.914Z,17.60
2022-08-26T03:35:43.434Z,18.50
2022-08-26T03:38:10.858Z,18.53
2022-08-26T03:40:39.096Z,17.30
2022-08-26T03:43:13.454Z,16.57
2022-08-26T03:45:43.185Z,13.73
2022-08-26T03:48:12.787Z,17.33
2022-08-26T03:50:39.373Z,19.13
2022-08-26T03:53:12.950Z,20.10
2022-08-26T03:55:41.254Z,21.10
2022-08-26T03:58:11.528Z,20.57
2022-08-26T04:00:38.243Z,20.37
2022-08-26T04:03:05.349Z,17.43
2022-08-26T04:05:39.405Z,18.47
2022-08-26T04:08:06.762Z,14.27
2022-08-26T04:10:34.967Z,21.17
2022-08-26T04:13:03.138Z,16.23
2022-08-26T04:15:30.515Z,15.50
2022-08-26T04:17:57.566Z,14.90
2022-08-26T04:20:24.528Z,15.07
2022-08-26T04:22:51.841Z,21.60
2022-08-26T04:25:20.465Z,17.20
2022-08-26T04:27:47.232Z,19.73
2022-08-26T04:30:15.801Z,15.83
2022-08-26T04:32:43.530Z,18.20
2022-08-26T04:35:10.650Z,17.43
2022-08-26T04:37:37.763Z,17.07
2022-08-26T04:40:06.826Z,26.63
2022-08-26T04:42:35.029Z,19.53
2022-08-26T04:45:10.361Z,22.70
2022-08-26T04:47:38.118Z,24.27
2022-08-26T04:50:06.952Z,18.50
2022-08-26T04:52:38.168Z,23.63
2022-08-26T04:55:08.471Z,19.10
2022-08-26T04:57:39.273Z,20.47
2022-08-26T05:00:10.436Z,20.47
2022-08-26T05:02:41.187Z,22.50
2022-08-26T05:05:10.438Z,19.27
2022-08-26T05:07:36.855Z,26.00
2022-08-26T05:10:05.116Z,22.87
2022-08-26T05:12:36.422Z,20.77
2022-08-26T05:15:06.099Z,23.17
2022-08-26T05:17:35.213Z,23.17
2022-08-26T05:20:05.202Z,22.53
2022-08-26T05:22:38.528Z,23.10
2022-08-26T05:25:06.799Z,22.17
2022-08-26T05:27:35.040Z,25.50
2022-08-26T05:30:01.758Z,28.50
2022-08-26T05:32:28.257Z,27.07
2022-08-26T05:34:57.003Z,24.67
2022-08-26T05:37:25.201Z,24.33
2022-08-26T05:39:52.051Z,25.50
2022-08-26T05:42:24.064Z,24.20
2022-08-26T05:44:55.973Z,23.73
2022-08-26T05:47:24.240Z,26.30
2022-08-26T05:49:51.568Z,27.97
2022-08-26T05:52:19.661Z,25.43
2022-08-26T05:54:46.282Z,32.70
2022-08-26T05:57:14.505Z,24.63
2022-08-26T05:59:40.985Z,22.10
2022-08-26T06:02:08.460Z,30.17
2022-08-26T06:04:36.758Z,29.63
2022-08-26T06:07:04.387Z,25.37
2022-08-26T06:09:32.298Z,19.57
2022-08-26T06:12:01.801Z,23.40
2022-08-26T06:14:30.468Z,21.33
2022-08-26T06:16:57.256Z,23.37
2022-08-26T06:19:23.759Z,22.17
2022-08-26T06:21:54.749Z,26.53
2022-08-26T06:24:43.000Z,20.90
2022-08-26T06:27:13.448Z,27.80
2022-08-26T06:29:40.697Z,26.57
2022-08-26T06:32:08.796Z,23.33
2022-08-26T06:34:35.523Z,23.37
2022-08-26T06:37:03.289Z,30.80
2022-08-26T06:39:31.467Z,27.80
2022-08-26T06:41:59.389Z,23.13
2022-08-26T06:44:26.720Z,25.60
2022-08-26T06:46:53.523Z,22.83
2022-08-26T06:49:27.137Z,25.23
2022-08-26T06:51:58.410Z,24.00
2022-08-26T06:54:25.590Z,21.73
2022-08-26T06:56:52.301Z,23.10
2022-08-26T06:59:18.900Z,23.03
2022-08-26T07:01:46.376Z,25.43
2022-08-26T07:04:20.257Z,33.00
2022-08-26T07:06:52.260Z,24.77
2022-08-26T07:09:21.132Z,22.30
2022-08-26T07:11:48.141Z,28.00
2022-08-26T07:14:16.720Z,27.00
2022-08-26T07:16:43.241Z,29.50
2022-08-26T07:19:11.618Z,24.90
2022-08-26T07:21:41.453Z,24.70
2022-08-26T07:24:09.309Z,28.50
2022-08-26T07:26:38.329Z,23.33
2022-08-26T07:29:06.930Z,22.87
2022-08-26T07:31:39.258Z,24.63
2022-08-26T07:34:10.502Z,24.53
2022-08-26T07:36:37.009Z,22.47
2022-08-26T07:39:04.451Z,22.30
2022-08-26T07:41:31.017Z,24.73
2022-08-26T07:43:58.510Z,26.93
2022-08-26T07:46:27.280Z,24.50
2022-08-26T07:48:57.073Z,20.50
2022-08-26T07:51:24.789Z,22.53
2022-08-26T07:53:52.354Z,27.65
2022-08-26T07:56:20.960Z,23.95
2022-08-26T07:58:51.292Z,23.10
2022-08-26T08:01:18.801Z,20.23
2022-08-26T08:03:45.480Z,25.08
2022-08-26T08:06:12.026Z,22.95
2022-08-26T08:08:41.300Z,24.20
2022-08-26T08:11:08.253Z,27.45
2022-08-26T08:13:37.989Z,27.35
2022-08-26T08:16:05.392Z,25.60
2022-08-26T08:18:31.918Z,23.27
2022-08-26T08:21:21.097Z,23.95
2022-08-26T08:23:47.212Z,23.20
2022-08-26T08:26:14.085Z,21.75
2022-08-26T08:28:46.223Z,21.67
2022-08-26T08:31:56.070Z,21.83
2022-08-26T08:34:15.588Z,23.65
2022-08-26T08:36:42.142Z,25.02
2022-08-26T08:39:10.453Z,31.33
2022-08-26T08:41:55.340Z,21.48
2022-08-26T08:47:04.385Z,24.05
2022-08-26T08:49:34.492Z,21.70
2022-08-26T08:52:18.783Z,20.95
2022-08-26T08:54:46.570Z,24.45
2022-08-26T08:57:27.237Z,22.08
2022-08-26T09:00:08.221Z,20.70
2022-08-26T09:02:43.077Z,22.20
2022-08-26T09:05:24.718Z,19.80
2022-08-26T09:08:12.488Z,22.30
2022-08-26T09:10:43.623Z,22.25
2022-08-26T09:13:16.808Z,19.13
2022-08-26T09:16:02.880Z,23.10
2022-08-26T09:18:50.150Z,19.42
2022-08-26T09:21:19.912Z,26.38
2022-08-26T09:23:49.618Z,23.92
2022-08-26T09:26:19.324Z,26.80
2022-08-26T09:28:55.085Z,21.42
2022-08-26T09:31:31.861Z,29.92
2022-08-26T09:34:05.352Z,23.10
2022-08-26T09:36:41.351Z,23.38
2022-08-26T09:39:29.262Z,23.80
2022-08-26T09:42:23.160Z,26.23
2022-08-26T09:44:54.326Z,22.92
2022-08-26T09:47:30.133Z,20.77
2022-08-26T09:50:19.954Z,18.27
2022-08-26T09:52:47.387Z,21.60
2022-08-26T09:55:22.607Z,20.27
2022-08-26T09:57:54.662Z,24.38
2022-08-26T10:00:32.082Z,19.23
2022-08-26T10:03:02.768Z,18.98
2022-08-26T10:05:57.041Z,20.08
2022-08-26T10:08:34.487Z,20.17
2022-08-26T10:11:04.499Z,18.63
2022-08-26T10:13:31.257Z,22.13
2022-08-26T10:16:06.114Z,21.25
2022-08-26T10:18:42.275Z,22.55
2022-08-26T10:21:11.688Z,23.00
2022-08-26T10:23:43.304Z,23.80
2022-08-26T10:26:22.325Z,26.23
2022-08-26T10:29:04.077Z,16.75
2022-08-26T10:31:46.744Z,23.45
2022-08-26T10:34:16.953Z,18.15
2022-08-26T10:37:16.676Z,23.05
2022-08-26T10:40:01.992Z,20.80
2022-08-26T10:42:52.959Z,17.95
2022-08-26T10:45:25.328Z,17.42
2022-08-26T10:48:10.091Z,19.83
2022-08-26T10:50:39.414Z,23.00
2022-08-26T10:53:17.934Z,23.35
2022-08-26T10:56:03.346Z,20.98
2022-08-26T10:58:56.095Z,18.73
2022-08-26T11:01:43.474Z,21.95
2022-08-26T11:04:48.346Z,22.83
2022-08-26T11:07:36.870Z,22.40
2022-08-26T11:10:28.594Z,17.70
2022-08-26T11:13:00.919Z,23.90
2022-08-26T11:15:30.234Z,25.23
2022-08-26T11:18:04.659Z,22.15
2022-08-26T11:20:41.998Z,21.02
2022-08-26T11:23:23.964Z,23.40
2022-08-26T11:25:57.267Z,24.75
2022-08-26T11:28:35.481Z,18.80
2022-08-26T11:31:04.481Z,19.35
2022-08-26T11:33:51.293Z,20.50
2022-08-26T11:36:42.746Z,21.98
2022-08-26T11:39:24.874Z,23.75
2022-08-26T11:41:55.661Z,18.00
2022-08-26T11:44:37.583Z,16.85
2022-08-26T11:47:11.486Z,19.27
2022-08-26T11:49:38.717Z,22.70
2022-08-26T11:52:21.117Z,19.17
2022-08-26T11:55:02.515Z,19.95
2022-08-26T11:57:32.889Z,15.65
2022-08-26T12:00:00.239Z,16.95
2022-08-26T12:02:27.814Z,23.25
2022-08-26T12:04:54.863Z,25.30
2022-08-26T12:07:26.032Z,18.13
2022-08-26T12:10:02.299Z,18.55
2022-08-26T12:12:38.543Z,15.27
2022-08-26T12:15:18.592Z,16.65
2022-08-26T12:17:50.487Z,13.70
2022-08-26T12:20:54.007Z,13.55
2022-08-26T12:23:40.869Z,17.70
2022-08-26T12:26:21.307Z,12.63
2022-08-26T12:29:00.822Z,15.38
2022-08-26T12:31:43.369Z,13.40
2022-08-26T12:34:17.841Z,13.02
2022-08-26T12:36:53.726Z,13.70
2022-08-26T12:39:28.937Z,18.13
2022-08-26T12:41:58.390Z,13.88
2022-08-26T12:44:53.745Z,17.70
2022-08-26T12:47:42.645Z,19.17
2022-08-26T12:50:27.231Z,17.23
2022-08-26T12:53:02.280Z,18.25
2022-08-26T12:55:33.577Z,26.35
2022-08-26T12:58:22.898Z,24.77
2022-08-26T13:00:56.457Z,21.95
2022-08-26T13:03:50.188Z,23.13
2022-08-26T13:06:27.700Z,24.55
2022-08-26T13:09:00.185Z,24.58
2022-08-26T13:11:35.507Z,28.95
2022-08-26T13:14:21.009Z,25.58
2022-08-26T13:16:50.563Z,24.17
2022-08-26T13:19:22.449Z,26.27
2022-08-26T13:21:57.417Z,28.20
2022-08-26T13:24:37.124Z,25.08
2022-08-26T13:27:07.523Z,33.80
2022-08-26T13:29:35.694Z,18.42
2022-08-26T13:32:04.755Z,23.25
2022-08-26T13:34:31.491Z,18.85
2022-08-26T13:36:59.113Z,18.75
2022-08-26T13:39:26.583Z,21.25
2022-08-26T13:41:53.312Z,17.90
2022-08-26T13:44:21.497Z,17.50
2022-08-26T13:46:48.117Z,21.15
2022-08-26T13:49:14.593Z,18.20
2022-08-26T13:51:41.789Z,17.35
2022-08-26T13:54:08.793Z,16.27
2022-08-26T13:56:36.176Z,20.40
2022-08-26T13:59:04.079Z,19.75
2022-08-26T14:01:32.090Z,21.23
2022-08-26T14:03:59.698Z,14.95
2022-08-26T14:06:26.544Z,18.77
2022-08-26T14:08:53.207Z,17.67
2022-08-26T14:11:21.368Z,17.02
2022-08-26T14:13:47.896Z,17.02
2022-08-26T14:16:27.103Z,14.55
2022-08-26T14:18:54.203Z,17.35
2022-08-26T14:21:21.305Z,21.48
2022-08-26T14:23:47.898Z,20.23
2022-08-26T14:26:28.940Z,19.38
2022-08-26T14:28:58.592Z,17.92
2022-08-26T14:31:26.898Z,17.08
2022-08-26T14:33:54.861Z,20.25
2022-08-26T14:36:33.354Z,22.17
2022-08-26T14:39:05.031Z,16.13
2022-08-26T14:41:33.743Z,20.85
2022-08-26T14:44:05.930Z,21.65
2022-08-26T14:46:39.886Z,15.95
2022-08-26T14:49:10.394Z,16.40
2022-08-26T14:51:38.078Z,17.10
2022-08-26T14:54:13.787Z,14.23
2022-08-26T14:56:56.486Z,15.60
2022-08-26T14:59:33.212Z,13.73
2022-08-26T15:02:00.631Z,14.65
2022-08-26T15:04:28.519Z,15.50
2022-08-26T15:06:56.847Z,17.02
2022-08-26T15:09:24.860Z,17.65
2022-08-26T15:11:53.094Z,15.05
2022-08-26T15:14:21.590Z,15.40
2022-08-26T15:16:50.160Z,19.90
2022-08-26T15:19:17.725Z,16.40
2022-08-26T15:21:45.481Z,16.38
2022-08-26T15:24:13.133Z,13.95
2022-08-26T15:26:39.962Z,13.20
2022-08-26T15:29:06.885Z,19.58
2022-08-26T15:31:38.584Z,19.45
2022-08-26T15:34:12.138Z,16.02
2022-08-26T15:36:44.685Z,17.33
2022-08-26T15:39:11.342Z,17.45
2022-08-26T15:41:38.378Z,16.90
2022-08-26T15:44:07.702Z,14.55
2022-08-26T15:46:35.871Z,26.48
2022-08-26T15:49:05.864Z,18.95
2022-08-26T15:51:45.513Z,18.05
2022-08-26T15:54:12.738Z,18.45
2022-08-26T15:56:39.206Z,16.92
2022-08-26T15:59:08.386Z,19.83
2022-08-26T16:01:36.046Z,17.25
2022-08-26T16:04:04.592Z,20.15
2022-08-26T16:06:35.939Z,17.23
2022-08-26T16:09:05.852Z,17.63
2022-08-26T16:11:33.973Z,19.45
2022-08-26T16:14:00.902Z,21.63
2022-08-26T16:16:27.517Z,20.23
2022-08-26T16:18:54.656Z,21.53
2022-08-26T16:21:25.468Z,20.07
2022-08-26T16:23:52.211Z,19.77
2022-08-26T16:26:22.639Z,22.33
2022-08-26T16:28:49.074Z,20.53
2022-08-26T16:31:16.180Z,26.10
2022-08-26T16:33:42.908Z,22.67
2022-08-26T16:36:10.133Z,20.25
2022-08-26T16:38:38.640Z,28.53
2022-08-26T16:41:06.163Z,29.37
2022-08-26T16:43:33.949Z,28.73
2022-08-26T16:46:00.634Z,32.73
2022-08-26T16:48:27.940Z,30.60
2022-08-26T16:50:55.493Z,28.87
2022-08-26T16:53:25.663Z,33.13
2022-08-26T16:55:52.182Z,34.33
2022-08-26T16:58:22.261Z,29.07
2022-08-26T17:00:49.529Z,36.13
2022-08-26T17:03:16.150Z,31.97
2022-08-26T17:05:42.736Z,34.87
2022-08-26T17:08:09.501Z,34.43
2022-08-26T17:10:37.684Z,38.80
2022-08-26T17:13:07.301Z,30.23
2022-08-26T17:15:35.222Z,33.13
2022-08-26T17:18:02.266Z,32.87
2022-08-26T17:20:29.879Z,31.60
2022-08-26T17:22:56.395Z,35.73
2022-08-26T17:25:27.063Z,35.80
2022-08-26T17:27:53.918Z,36.83
2022-08-26T17:30:25.468Z,34.80
2022-08-26T17:32:52.356Z,30.67
2022-08-26T17:35:20.330Z,36.17
2022-08-26T17:37:47.149Z,34.73
2022-08-26T17:40:18.367Z,34.87
2022-08-26T17:42:44.986Z,37.33
2022-08-26T17:45:12.663Z,37.53
2022-08-26T17:47:41.366Z,34.93
2022-08-26T17:50:12.999Z,35.50
2022-08-26T17:52:41.309Z,39.03
2022-08-26T17:55:17.106Z,33.57
2022-08-26T17:57:43.912Z,38.07
2022-08-26T18:00:22.601Z,36.57
2022-08-26T18:02:49.116Z,40.83
2022-08-26T18:05:17.423Z,34.43
2022-08-26T18:07:44.801Z,34.27
2022-08-26T18:10:15.494Z,38.27
2022-08-26T18:12:42.403Z,33.67
2022-08-26T18:15:11.494Z,32.43
2022-08-26T18:17:39.274Z,40.53
2022-08-26T18:20:16.053Z,33.23
2022-08-26T18:22:43.708Z,32.90
2022-08-26T18:25:11.623Z,34.27
2022-08-26T18:27:38.970Z,33.17
2022-08-26T18:30:13.402Z,35.30
2022-08-26T18:32:42.685Z,36.00
2022-08-26T18:35:10.354Z,37.27
2022-08-26T18:37:37.784Z,34.23
2022-08-26T18:40:07.100Z,39.30
2022-08-26T18:42:35.230Z,33.80
2022-08-26T18:45:15.977Z,35.03
2022-08-26T18:47:43.230Z,38.73
2022-08-26T18:50:11.489Z,32.83
2022-08-26T18:52:38.842Z,37.23
2022-08-26T18:55:07.654Z,33.93
2022-08-26T18:57:36.173Z,31.57
2022-08-26T19:00:11.512Z,33.47
2022-08-26T19:02:38.857Z,25.13
2022-08-26T19:05:07.151Z,32.07
2022-08-26T19:07:45.224Z,24.90
2022-08-26T19:10:14.519Z,27.37
2022-08-26T19:12:42.280Z,26.07
2022-08-26T19:15:09.558Z,25.87
2022-08-26T19:17:37.295Z,24.73
2022-08-26T19:20:09.657Z,28.00
2022-08-26T19:22:37.522Z,27.37
2022-08-26T19:25:06.062Z,24.43
2022-08-26T19:27:33.883Z,23.30
2022-08-26T19:30:00.596Z,22.57
2022-08-26T19:32:27.047Z,26.00
2022-08-26T19:34:54.523Z,23.43
2022-08-26T19:37:24.675Z,26.60
2022-08-26T19:39:51.354Z,23.57
2022-08-26T19:42:17.909Z,26.53
2022-08-26T19:45:03.348Z,24.80
2022-08-26T19:47:31.544Z,19.40
2022-08-26T19:49:58.007Z,17.13
2022-08-26T19:52:30.093Z,14.40
2022-08-26T19:54:57.609Z,12.70
2022-08-26T19:57:24.186Z,10.63
2022-08-26T19:59:50.660Z,12.73
2022-08-26T20:02:18.052Z,12.77
2022-08-26T20:04:44.612Z,11.33
2022-08-26T20:07:15.327Z,10.37
2022-08-26T20:09:45.161Z,11.27
2022-08-26T20:12:12.365Z,10.00
2022-08-26T20:14:42.192Z,9.43
2022-08-26T20:17:13.129Z,8.70
2022-08-26T20:20:01.542Z,9.03
2022-08-26T20:22:28.208Z,7.73
2022-08-26T20:24:54.709Z,7.10
2022-08-26T20:27:38.142Z,11.97
2022-08-26T20:30:07.633Z,8.90
2022-08-26T20:32:36.366Z,8.10
2022-08-26T20:35:04.602Z,8.00
2022-08-26T20:37:31.363Z,9.57
2022-08-26T20:39:58.250Z,9.20
2022-08-26T20:42:26.019Z,10.60
2022-08-26T20:44:54.473Z,9.23
2022-08-26T20:47:22.818Z,7.47
2022-08-26T20:49:52.386Z,7.70
2022-08-26T20:52:21.657Z,8.17
2022-08-26T20:54:48.086Z,9.30
2022-08-26T20:57:14.656Z,11.27
2022-08-26T20:59:42.945Z,8.53
2022-08-26T21:02:09.817Z,7.63
2022-08-26T21:04:38.108Z,7.77
2022-08-26T21:07:06.309Z,8.33
2022-08-26T21:09:33.109Z,9.40
2022-08-26T21:12:00.622Z,9.80
2022-08-26T21:14:28.194Z,6.43
2022-08-26T21:16:56.582Z,9.23
2022-08-26T21:19:23.632Z,9.77
2022-08-26T21:21:50.686Z,8.57
2022-08-26T21:24:17.724Z,6.40
2022-08-26T21:26:45.145Z,7.17
2022-08-26T21:29:13.766Z,10.37
2022-08-26T21:31:46.022Z,7.50
2022-08-26T21:34:16.108Z,12.07
2022-08-26T21:36:42.813Z,10.53
2022-08-26T21:39:11.989Z,9.27
2022-08-26T21:41:42.665Z,9.87
2022-08-26T21:44:17.781Z,9.10
2022-08-26T21:46:45.870Z,7.77
2022-08-26T21:49:15.626Z,8.97
2022-08-26T21:51:46.159Z,9.87
2022-08-26T21:54:13.295Z,7.83
2022-08-26T21:56:46.688Z,10.83
2022-08-26T21:59:18.066Z,9.33
2022-08-26T22:01:45.285Z,10.50
2022-08-26T22:04:11.729Z,9.67
2022-08-26T22:06:47.136Z,12.33
2022-08-26T22:09:15.383Z,13.93
2022-08-26T22:11:42.934Z,9.40
2022-08-26T22:14:10.605Z,12.60
2022-08-26T22:16:38.009Z,12.93
2022-08-26T22:19:05.518Z,12.97
2022-08-26T22:21:32.577Z,13.00
2022-08-26T22:23:59.081Z,15.53
2022-08-26T22:26:29.503Z,14.33
2022-08-26T22:28:58.963Z,10.03
2022-08-26T22:31:37.893Z,9.43
2022-08-26T22:34:08.998Z,16.97
2022-08-26T22:36:43.208Z,11.53
2022-08-26T22:39:14.734Z,10.30
2022-08-26T22:41:43.241Z,14.00
2022-08-26T22:44:11.722Z,11.43
2022-08-26T22:46:39.961Z,14.50
2022-08-26T22:49:09.480Z,14.00
2022-08-26T22:51:43.884Z,13.37
2022-08-26T22:54:10.954Z,11.93
2022-08-26T22:56:40.793Z,10.40
2022-08-26T22:59:12.060Z,11.23
2022-08-26T23:01:42.265Z,13.07
2022-08-26T23:04:13.113Z,10.60
2022-08-26T23:06:43.139Z,17.07
2022-08-26T23:09:10.491Z,11.20
2022-08-26T23:11:39.891Z,15.20
2022-08-26T23:14:09.938Z,9.83
2022-08-26T23:16:41.683Z,13.27
2022-08-26T23:19:10.541Z,12.83
2022-08-26T23:21:38.106Z,12.73
2022-08-26T23:24:06.381Z,15.07
2022-08-26T23:26:34.627Z,13.43
2022-08-26T23:29:02.010Z,11.63
2022-08-26T23:31:28.685Z,9.67
2022-08-26T23:34:13.745Z,11.43
2022-08-26T23:36:42.344Z,15.47
2022-08-26T23:39:10.977Z,14.90
2022-08-26T23:41:38.345Z,11.03
2022-08-26T23:44:12.227Z,12.60
2022-08-26T23:46:39.606Z,11.60
2022-08-26T23:49:06.536Z,9.83
2022-08-26T23:51:51.650Z,10.97
2022-08-26T23:54:19.545Z,13.83
2022-08-26T23:56:46.212Z,11.80
2022-08-26T23:59:12.929Z,14.20
